TimeAST,TemperatureF,Dew PointF,Humidity,Sea Level PressureIn,VisibilityMPH,Wind Direction,Wind SpeedMPH,Gust SpeedMPH,PrecipitationIn,Events,Conditions,WindDirDegrees,DateUTC
12:00 AM,70,63,72,30.00,7,,1.2,,,,,,2013-12-03 21:00:00
12:00 AM,69.8,62.6,78,29.98,-9999.0,Variable,1.2,-,N/A,,Clear,0,2013-12-03 21:00:00
1:00 AM,68.0,62.6,83,29.98,-9999.0,Variable,2.3,-,N/A,,Clear,0,2013-12-03 22:00:00
2:00 AM,66.2,62.6,88,29.98,5.0,Calm,Calm,-,N/A,,Unknown,0,2013-12-03 23:00:00
3:00 AM,67,62,78,29.99,5,SW,3.5,,,,Haze,230,2013-12-04 00:00:00
3:00 AM,66.2,62.6,88,29.98,5.0,SW,3.5,-,N/A,,Unknown,230,2013-12-04 00:00:00
3:30 AM,66.2,60.8,83,29.98,5.0,SW,3.5,-,N/A,,Unknown,230,2013-12-04 00:30:00
4:30 AM,66.2,60.8,83,29.98,5.0,SSW,3.5,-,N/A,,Unknown,210,2013-12-04 01:30:00
5:00 AM,64.4,60.8,88,29.98,5.0,SW,3.5,-,N/A,,Unknown,220,2013-12-04 02:00:00
5:30 AM,64.4,60.8,88,29.98,5.0,SW,3.5,-,N/A,,Unknown,230,2013-12-04 02:30:00
6:00 AM,65,61,81,30.01,4,,2.3,,,,Haze,,2013-12-04 03:00:00
6:00 AM,64.4,60.8,88,30.01,3.7,Variable,2.3,-,N/A,,Unknown,0,2013-12-04 03:00:00
6:30 AM,64.4,60.8,88,30.01,3.7,SW,3.5,-,N/A,,Unknown,230,2013-12-04 03:30:00
7:00 AM,66.2,62.6,88,30.04,3.7,Variable,2.3,-,N/A,,Unknown,0,2013-12-04 04:00:00
7:30 AM,68.0,62.6,83,30.04,3.7,Variable,2.3,-,N/A,,Unknown,0,2013-12-04 04:30:00
8:00 AM,69.8,62.6,78,30.04,3.1,SSW,4.6,-,N/A,,Haze,210,2013-12-04 05:00:00
9:00 AM,73,63,64,30.08,4,SSW,4.6,,,,Haze,200,2013-12-04 06:00:00
9:00 AM,73.4,62.6,69,30.06,3.7,SSW,4.6,-,N/A,,Unknown,200,2013-12-04 06:00:00
9:30 AM,75.2,57.2,53,30.06,5.0,SSW,6.9,-,N/A,,Unknown,210,2013-12-04 06:30:00
10:00 AM,77.0,53.6,44,30.06,5.6,North,-9999.0,-,N/A,,Unknown,0,2013-12-04 07:00:00
10:30 AM,77.0,50.0,39,30.04,-9999.0,SSW,6.9,-,N/A,,Clear,200,2013-12-04 07:30:00
11:00 AM,78.8,53.6,42,30.04,-9999.0,SW,5.8,-,N/A,,Clear,220,2013-12-04 08:00:00
11:30 AM,80.6,50.0,34,30.04,-9999.0,SW,5.8,-,N/A,,Clear,220,2013-12-04 08:30:00
12:00 PM,82,46,18,30.02,6,SSW,5.8,,,,Clear,200,2013-12-04 09:00:00
12:00 PM,82.4,46.4,28,30.01,-9999.0,SSW,5.8,-,N/A,,Clear,200,2013-12-04 09:00:00
12:30 PM,82.4,41.0,23,30.01,-9999.0,SSW,4.6,-,N/A,,Clear,210,2013-12-04 09:30:00
1:00 PM,82.4,57.2,42,29.98,-9999.0,SE,3.5,-,N/A,,Clear,130,2013-12-04 10:00:00
1:30 PM,80.6,59.0,48,29.98,-9999.0,ESE,10.4,-,N/A,,Clear,110,2013-12-04 10:30:00
2:00 PM,78.8,59.0,51,29.98,-9999.0,SE,11.5,-,N/A,,Clear,130,2013-12-04 11:00:00
2:30 PM,78.8,57.2,47,29.98,-9999.0,SE,9.2,-,N/A,,Clear,140,2013-12-04 11:30:00
3:00 PM,78,57,38,29.99,6,SE,9.2,,,,,130,2013-12-04 12:00:00
3:00 PM,78.8,57.2,47,29.98,-9999.0,SE,9.2,-,N/A,,Clear,130,2013-12-04 12:00:00
3:30 PM,77.0,55.4,47,29.98,-9999.0,SE,11.5,-,N/A,,Clear,130,2013-12-04 12:30:00
4:00 PM,77.0,57.2,50,29.98,-9999.0,SE,10.4,-,N/A,,Clear,130,2013-12-04 13:00:00
4:30 PM,75.2,59.0,57,29.98,-9999.0,SE,8.1,-,N/A,,Clear,140,2013-12-04 13:30:00
5:00 PM,75.2,59.0,57,29.98,-9999.0,SE,8.1,-,N/A,,Clear,130,2013-12-04 14:00:00
5:30 PM,73.4,59.0,61,29.98,-9999.0,ESE,4.6,-,N/A,,Clear,120,2013-12-04 14:30:00
6:00 PM,73,59,51,30.00,7,SE,3.5,,,,,130,2013-12-04 15:00:00
6:00 PM,73.4,59.0,61,29.98,-9999.0,SE,3.5,-,N/A,,Clear,130,2013-12-04 15:00:00
6:30 PM,71.6,59.0,64,29.98,-9999.0,SE,2.3,-,N/A,,Clear,130,2013-12-04 15:30:00
7:00 PM,71.6,57.2,60,30.01,-9999.0,SE,2.3,-,N/A,,Clear,140,2013-12-04 16:00:00
7:30 PM,71.6,59.0,64,30.01,-9999.0,SSE,5.8,-,N/A,,Clear,150,2013-12-04 16:30:00
8:00 PM,71.6,59.0,64,30.01,-9999.0,SE,3.5,-,N/A,,Clear,130,2013-12-04 17:00:00
9:00 PM,71,58,55,30.04,9,East,3.5,,,,Clear,80,2013-12-04 18:00:00
9:00 PM,71.6,59.0,64,30.04,-9999.0,East,3.5,-,N/A,,Clear,80,2013-12-04 18:00:00
9:30 PM,71.6,59.0,64,30.01,-9999.0,East,3.5,-,N/A,,Clear,100,2013-12-04 18:30:00
10:00 PM,71.6,60.8,69,30.01,-9999.0,East,3.5,-,N/A,,Clear,90,2013-12-04 19:00:00
10:30 PM,71.6,60.8,69,30.01,-9999.0,ESE,3.5,-,N/A,,Clear,110,2013-12-04 19:30:00
11:00 PM,71.6,60.8,69,30.01,-9999.0,ESE,4.6,-,N/A,,Clear,110,2013-12-04 20:00:00
11:30 PM,71.6,60.8,69,30.01,-9999.0,ESE,4.6,-,N/A,,Clear,110,2013-12-04 20:30:00